Time,TemperatureF,DewpointF,PressureIn,WindDirection,WindDirectionDegrees,WindSpeedMPH,WindSpeedGustMPH,Humidity,HourlyPrecipIn,Conditions,Clouds,dailyrainin,SoftwareType,DateUTC
2013-11-20 00:00:00,33.3,27.8,30.25,South,182,4.3,8.0,73,0.00,NA,NA,0.00,meteo_script,2013-11-20 06:00:00,
2013-11-20 00:30:00,33.4,28.0,30.25,South,185,4.0,8.0,73,0.00,NA,NA,0.00,meteo_script,2013-11-20 06:30:00,
2013-11-20 01:00:00,33.5,27.9,30.24,South,184,4.4,7.0,73,0.00,NA,NA,0.00,meteo_script,2013-11-20 07:00:00,
2013-11-20 01:30:00,33.4,28.0,30.24,South,183,4.8,9.0,73,0.00,NA,NA,0.00,meteo_script,2013-11-20 07:30:00,
2013-11-20 02:00:00,33.2,28.1,30.25,South,172,3.7,9.0,74,0.00,NA,NA,0.00,meteo_script,2013-11-20 08:00:00,
2013-11-20 02:30:00,33.3,28.2,30.25,South,187,2.1,4.0,75,0.00,NA,NA,0.00,meteo_script,2013-11-20 08:30:00,
2013-11-20 03:00:00,33.0,28.0,30.25,South,180,0.7,3.0,75,0.00,NA,NA,0.00,meteo_script,2013-11-20 09:00:00,
2013-11-20 03:30:00,32.7,27.7,30.26,SSW,193,2.8,7.0,75,0.00,NA,NA,0.00,meteo_script,2013-11-20 09:30:00,
2013-11-20 04:00:00,32.6,27.6,30.25,South,178,2.8,5.0,75,0.00,NA,NA,0.00,meteo_script,2013-11-20 10:00:00,
2013-11-20 04:30:00,33.0,28.0,30.24,South,184,3.9,8.0,75,0.00,NA,NA,0.00,meteo_script,2013-11-20 10:30:00,
2013-11-20 05:00:00,33.5,28.2,30.23,South,179,5.5,8.0,74,0.00,NA,NA,0.00,meteo_script,2013-11-20 11:00:00,
2013-11-20 05:30:00,33.5,28.2,30.22,South,185,2.8,8.0,73,0.00,NA,NA,0.00,meteo_script,2013-11-20 11:30:00,
2013-11-20 06:00:00,33.6,28.1,30.22,South,191,2.8,6.0,73,0.00,NA,NA,0.00,meteo_script,2013-11-20 12:00:00,
2013-11-20 06:30:00,33.5,28.0,30.22,SSW,197,2.1,5.0,73,0.00,NA,NA,0.00,meteo_script,2013-11-20 12:30:00,
2013-11-20 07:00:00,33.6,28.1,30.21,South,177,7.0,11.0,73,0.00,NA,NA,0.00,meteo_script,2013-11-20 13:00:00,
2013-11-20 07:30:00,33.8,28.0,30.22,SSW,192,3.3,6.0,72,0.00,NA,NA,0.00,meteo_script,2013-11-20 13:30:00,
2013-11-20 08:00:00,34.2,28.2,30.22,South,178,7.3,12.0,71,0.00,NA,NA,0.00,meteo_script,2013-11-20 14:00:00,
2013-11-20 08:30:00,34.7,28.2,30.23,South,178,6.1,12.0,69,0.00,NA,NA,0.00,meteo_script,2013-11-20 14:30:00,
2013-11-20 09:00:00,35.6,28.5,30.23,South,176,8.1,14.0,67,0.00,NA,NA,0.00,meteo_script,2013-11-20 15:00:00,
2013-11-20 09:30:00,36.0,28.9,30.23,SSW,202,6.0,10.0,67,0.00,NA,NA,0.00,meteo_script,2013-11-20 15:30:00,
2013-11-20 10:00:00,36.5,29.1,30.23,SSW,195,6.3,11.0,65,0.00,NA,NA,0.00,meteo_script,2013-11-20 16:00:00,
2013-11-20 10:30:00,37.5,29.2,30.22,SSW,192,4.3,9.0,63,0.00,NA,NA,0.00,meteo_script,2013-11-20 16:30:00,
2013-11-20 11:00:00,38.7,29.8,30.22,South,175,7.2,14.0,61,0.00,NA,NA,0.00,meteo_script,2013-11-20 17:00:00,
2013-11-20 11:30:00,39.4,29.8,30.19,South,170,3.3,5.0,59,0.00,NA,NA,0.00,meteo_script,2013-11-20 17:30:00,
2013-11-20 12:00:00,40.3,30.1,30.16,SSE,166,3.4,9.0,57,0.00,NA,NA,0.00,meteo_script,2013-11-20 18:00:00,
2013-11-20 12:30:00,40.0,29.9,30.16,South,172,2.8,7.0,57,0.00,NA,NA,0.00,meteo_script,2013-11-20 18:30:00,
2013-11-20 13:00:00,40.1,29.8,30.14,SSE,167,3.9,8.0,56,0.00,NA,NA,0.00,meteo_script,2013-11-20 19:00:00,
2013-11-20 13:30:00,40.4,30.2,30.13,South,183,2.4,5.0,57,0.00,NA,NA,0.00,meteo_script,2013-11-20 19:30:00,
2013-11-20 14:00:00,40.6,30.1,30.11,South,184,3.5,8.0,56,0.00,NA,NA,0.00,meteo_script,2013-11-20 20:00:00,
2013-11-20 14:30:00,40.6,30.4,30.12,South,171,2.4,5.0,57,0.00,NA,NA,0.00,meteo_script,2013-11-20 20:30:00,
2013-11-20 15:00:00,40.5,30.9,30.11,South,185,3.3,7.0,59,0.00,NA,NA,0.00,meteo_script,2013-11-20 21:00:00,
2013-11-20 15:30:00,40.4,31.1,30.13,South,170,2.1,4.0,60,0.00,NA,NA,0.00,meteo_script,2013-11-20 21:30:00,
2013-11-20 16:00:00,40.3,31.0,30.13,South,183,0.0,1.0,60,0.00,NA,NA,0.00,meteo_script,2013-11-20 22:00:00,
2013-11-20 16:30:00,40.0,31.9,30.10,South,183,0.8,3.0,64,0.00,NA,NA,0.00,meteo_script,2013-11-20 22:30:00,
2013-11-20 17:00:00,38.6,31.9,30.11,South,182,0.0,1.0,69,0.00,NA,NA,0.00,meteo_script,2013-11-20 23:00:00,
2013-11-20 17:30:00,37.9,32.2,30.13,North,0,0.0,0.0,73,0.04,NA,NA,0.02,meteo_script,2013-11-20 23:30:00,
2013-11-20 18:00:00,37.4,32.2,30.14,South,183,1.8,3.0,75,0.02,NA,NA,0.03,meteo_script,2013-11-21 00:00:00,
2013-11-20 18:30:00,37.4,32.7,30.14,South,179,3.3,5.0,77,0.02,NA,NA,0.04,meteo_script,2013-11-21 00:30:00,
2013-11-20 19:00:00,37.2,32.5,30.14,South,177,0.9,4.0,77,0.00,NA,NA,0.04,meteo_script,2013-11-21 01:00:00,
2013-11-20 19:30:00,37.0,32.7,30.14,South,175,0.0,1.0,79,0.02,NA,NA,0.05,meteo_script,2013-11-21 01:30:00,
2013-11-20 20:00:00,36.8,32.5,30.14,South,170,1.4,5.0,79,0.02,NA,NA,0.06,meteo_script,2013-11-21 02:00:00,
2013-11-20 20:30:00,36.3,32.3,30.14,South,169,2.4,6.0,80,0.00,NA,NA,0.06,meteo_script,2013-11-21 02:30:00,
2013-11-20 21:00:00,36.0,32.2,30.14,South,181,2.0,5.0,81,0.02,NA,NA,0.07,meteo_script,2013-11-21 03:00:00,
2013-11-20 21:30:00,36.1,32.5,30.13,SE,141,3.6,9.0,82,0.00,NA,NA,0.07,meteo_script,2013-11-21 03:30:00,
2013-11-20 22:00:00,36.2,32.8,30.15,South,176,4.8,8.0,83,0.00,NA,NA,0.07,meteo_script,2013-11-21 04:00:00,
2013-11-20 22:30:00,36.3,33.1,30.13,SSE,166,3.2,6.0,83,0.02,NA,NA,0.08,meteo_script,2013-11-21 04:30:00,
2013-11-20 23:00:00,36.5,33.3,30.13,South,180,1.3,4.0,84,0.00,NA,NA,0.08,meteo_script,2013-11-21 05:00:00,
2013-11-20 23:30:00,36.8,33.6,30.12,South,182,1.6,5.0,84,0.00,NA,NA,0.08,meteo_script,2013-11-21 05:30:00,